KDCY

Daviess County Airport

Washington, Indiana, USA
METAR KDCY 100635Z AUTO 36005KT 10SM CLR M05/M08 A3026 RMK AO2 T10521081
Observed Flight Rules
Dec-10 @ 06:35 UTC (34 minutes ago) Visual Flight Rules
Wind Visibility Clouds
360° at 5 knots 10 miles
  • Clear skies
Temperatures Readings
Current -5°C / 23°F
Dewpoint -8°C / 18°F
Humidity 80%
Altimeter 30.26" Hg
Pressure 1025 hPa
Elevation 144
METAR KDCY 100635Z AUTO 36005KT 10SM CLR M05/M08 A3026 RMK AO2 T10521081
Observed Flight Rules
Dec-10 @ 06:35 UTC
(34 minutes ago)
VFR
Wind Visibility
360° at 5 knots 10 miles
Clouds
  • Clear skies
Temperature Dewpoint
-5°C / 23°F -8°C / 18°F
Humidity Altimeter Pressure
80% 30.26" Hg 1025 hPa